Decoded Metar for KRCM ( in _UNIDENTIFIED) (IATA:N/A) | Meteo·Mobile Aviation Weather
aviador You're here:

KRCM Decoded Metar

in _UNIDENTIFIED
Report Time2018-09-20 05:15:00
UTC Time2018-09-20 05:03:11
Flight Rules vfr VFR
Wind150° at 05 kt
W.Decomp.*RWY 13: 4.9 kt HW 1.1 kt RCW
RWY 18: 4.0 kt HW 3 kt LCW
W.Rank150° ranks 3
Current wind is below 150° avg. (6.7)
Visibility9999 m
Phenomena:N/A
Clouds:N/A
Expected CloudBase > 2,000 ft AGL from Temp-Dew spread
CeilingNone
Temp25°C (ISA +12)
Dew Point20°C (74% RH)
QNH1013 hPa
Density Alt2,454 ft
Elevation801 ft
Report Wrong Elevation
Raw Report
KRCM 200515Z AUTO 15005KT 10SM CLR 25/20 A2990 RMK AO2=

Extra information for KRCM:More info

Metar Taf Metar & Taf Last 4 Metars F.Rules Stats Wind Profile Meteogram Temp Stats Metar ALERT Operation Metar Decoded Social comments